Terminal Aerodrome Forecast
Issued by NWS

Home | Current Version | Previous Version | Text Only | Print | Product List | Glossary On
Versions: 1 2 3 4 5 6 7 8 9 10 11 12 13 14 15 16
000
FTUS45 KABQ 241139
TAFTCC
TAF
KTCC 241139Z 2412/2512 17008KT P6SM BKN015
     FM241500 20012G20KT P6SM SCT030
     FM241800 20015G23KT P6SM FEW070
     FM250100 15013KT P6SM VCSH BKN035=

USA.gov is the U.S. government's official web portal to all federal, state and local government web resources and services.